createdAt,value
2022-09-14T00:02:49.253Z,2.30
2022-09-14T00:05:52.212Z,2.00
2022-09-14T00:08:56.371Z,2.20
2022-09-14T00:11:59.002Z,1.90
2022-09-14T00:15:01.645Z,2.13
2022-09-14T00:18:06.838Z,2.08
2022-09-14T00:21:11.487Z,2.10
2022-09-14T00:24:14.031Z,2.08
2022-09-14T00:27:17.028Z,1.92
2022-09-14T00:30:20.517Z,1.90
2022-09-14T00:33:22.983Z,2.03
2022-09-14T00:36:28.024Z,2.03
2022-09-14T00:39:30.685Z,1.80
2022-09-14T00:42:33.148Z,2.00
2022-09-14T00:45:35.943Z,2.03
2022-09-14T00:48:38.570Z,2.10
2022-09-14T00:51:46.953Z,2.10
2022-09-14T00:54:58.882Z,2.28
2022-09-14T00:58:01.694Z,1.92
2022-09-14T01:01:04.495Z,2.20
2022-09-14T01:04:07.337Z,2.50
2022-09-14T01:07:34.898Z,2.00
2022-09-14T01:11:25.556Z,1.98
2022-09-14T01:14:41.967Z,1.85
2022-09-14T01:18:08.450Z,2.10
2022-09-14T01:21:13.643Z,2.10
2022-09-14T01:24:54.483Z,2.00
2022-09-14T01:28:03.179Z,2.20
2022-09-14T01:31:12.619Z,1.90
2022-09-14T01:34:30.159Z,1.80
2022-09-14T01:37:45.537Z,2.10
2022-09-14T01:40:50.296Z,2.00
2022-09-14T01:43:58.089Z,1.90
2022-09-14T01:47:26.450Z,1.90
2022-09-14T01:50:34.168Z,2.10
2022-09-14T01:53:45.989Z,2.33
2022-09-14T01:57:32.617Z,1.90
2022-09-14T02:00:39.502Z,2.25
2022-09-14T02:03:58.103Z,2.15
2022-09-14T02:07:00.740Z,2.00
2022-09-14T02:10:06.629Z,1.90
2022-09-14T02:13:10.028Z,1.90
2022-09-14T02:16:13.198Z,2.20
2022-09-14T02:19:18.303Z,2.10
2022-09-14T02:22:25.103Z,1.70
2022-09-14T02:25:27.947Z,2.15
2022-09-14T02:28:30.761Z,2.22
2022-09-14T02:31:59.128Z,2.42
2022-09-14T02:35:26.431Z,2.08
2022-09-14T02:38:31.945Z,2.27
2022-09-14T02:42:02.024Z,2.13
2022-09-14T02:45:10.605Z,2.00
2022-09-14T02:48:18.958Z,1.80
2022-09-14T02:51:54.006Z,1.85
2022-09-14T02:55:16.489Z,2.27
2022-09-14T02:58:19.231Z,1.83
2022-09-14T03:01:23.951Z,2.35
2022-09-14T03:04:27.205Z,1.98
2022-09-14T03:07:29.699Z,2.00
2022-09-14T03:10:33.188Z,1.87
2022-09-14T03:13:36.396Z,2.10
2022-09-14T03:16:39.582Z,1.80
2022-09-14T03:19:42.091Z,2.28
2022-09-14T03:22:44.675Z,2.00
2022-09-14T03:25:47.312Z,2.10
2022-09-14T03:28:54.913Z,2.10
2022-09-14T03:31:57.348Z,1.75
2022-09-14T03:35:00.596Z,2.03
2022-09-14T03:38:03.427Z,1.80
2022-09-14T03:41:10.450Z,2.13
2022-09-14T03:44:13.459Z,1.98
2022-09-14T03:47:15.962Z,1.70
2022-09-14T03:50:19.269Z,1.90
2022-09-14T03:53:21.983Z,2.05
2022-09-14T03:56:24.456Z,2.40
2022-09-14T03:59:27.038Z,1.90
2022-09-14T04:02:29.860Z,2.42
2022-09-14T04:05:32.546Z,1.90
2022-09-14T04:08:37.309Z,1.98
2022-09-14T04:11:39.859Z,1.80
2022-09-14T04:14:42.943Z,1.88
2022-09-14T04:17:45.793Z,1.90
2022-09-14T04:20:57.904Z,2.22
2022-09-14T04:24:14.710Z,1.80
2022-09-14T04:27:18.158Z,1.80
2022-09-14T04:30:21.300Z,1.60
2022-09-14T04:33:23.969Z,1.90
2022-09-14T04:36:31.191Z,1.70
2022-09-14T04:39:33.958Z,1.73
2022-09-14T04:42:36.451Z,1.87
2022-09-14T04:45:38.947Z,1.85
2022-09-14T04:48:43.458Z,1.90
2022-09-14T04:51:46.196Z,1.75
2022-09-14T04:54:48.657Z,1.90
2022-09-14T04:57:51.199Z,2.10
2022-09-14T05:00:53.700Z,1.92
2022-09-14T05:03:57.109Z,2.08
2022-09-14T05:06:59.729Z,1.70
2022-09-14T05:10:02.242Z,2.00
2022-09-14T05:13:04.729Z,2.00
2022-09-14T05:16:17.282Z,2.00
2022-09-14T05:19:19.860Z,1.98
2022-09-14T05:22:22.764Z,2.10
2022-09-14T05:25:27.149Z,2.20
2022-09-14T05:28:30.136Z,2.00
2022-09-14T05:31:33.176Z,2.13
2022-09-14T05:34:35.886Z,2.03
2022-09-14T05:37:38.361Z,2.47
2022-09-14T05:40:41.175Z,2.50
2022-09-14T05:43:45.569Z,2.30
2022-09-14T05:46:48.201Z,2.22
2022-09-14T05:49:51.475Z,2.13
2022-09-14T05:52:55.250Z,2.17
2022-09-14T05:56:02.763Z,2.10
2022-09-14T05:59:05.426Z,2.00
2022-09-14T06:02:11.077Z,1.92
2022-09-14T06:05:16.340Z,2.00
2022-09-14T06:08:20.541Z,2.13
2022-09-14T06:11:26.107Z,2.13
2022-09-14T06:14:28.826Z,1.93
2022-09-14T06:17:32.455Z,2.00
2022-09-14T06:20:35.074Z,1.88
2022-09-14T06:23:38.262Z,1.92
2022-09-14T06:26:40.989Z,2.00
2022-09-14T06:29:43.476Z,2.10
2022-09-14T06:32:45.989Z,2.20
2022-09-14T06:36:04.921Z,1.98
2022-09-14T06:39:08.958Z,2.30
2022-09-14T06:42:11.517Z,2.42
2022-09-14T06:45:14.891Z,2.10
2022-09-14T06:48:17.515Z,2.13
2022-09-14T06:51:36.466Z,2.20
2022-09-14T06:54:39.092Z,2.30
2022-09-14T06:57:43.162Z,2.38
2022-09-14T07:00:46.151Z,2.20
2022-09-14T07:03:48.998Z,2.40
2022-09-14T07:06:59.182Z,2.13
2022-09-14T07:10:01.861Z,2.55
2022-09-14T07:13:04.437Z,2.08
2022-09-14T07:16:11.917Z,2.10
2022-09-14T07:19:15.994Z,2.40
2022-09-14T07:22:19.588Z,2.00
2022-09-14T07:25:22.160Z,2.28
2022-09-14T07:28:24.762Z,2.50
2022-09-14T07:31:31.330Z,1.90
2022-09-14T07:34:33.921Z,2.40
2022-09-14T07:37:36.461Z,2.10
2022-09-14T07:40:39.330Z,1.92
2022-09-14T07:43:43.576Z,2.13
2022-09-14T07:46:48.295Z,2.30
2022-09-14T07:49:51.849Z,2.33
2022-09-14T07:52:54.359Z,2.58
2022-09-14T07:56:02.860Z,2.72
2022-09-14T08:02:29.320Z,2.20
2022-09-14T08:05:32.708Z,2.65
2022-09-14T08:08:37.833Z,2.15
2022-09-14T08:11:40.553Z,2.70
2022-09-14T08:14:43.076Z,2.20
2022-09-14T08:17:45.498Z,2.50
2022-09-14T08:20:48.069Z,2.40
2022-09-14T08:23:51.298Z,2.47
2022-09-14T08:26:55.170Z,2.60
2022-09-14T08:29:57.955Z,2.10
2022-09-14T08:33:01.945Z,2.40
2022-09-14T08:36:06.796Z,2.08
2022-09-14T08:39:11.325Z,2.00
2022-09-14T08:42:20.133Z,2.53
2022-09-14T08:45:24.307Z,2.28
2022-09-14T08:48:37.545Z,2.50
2022-09-14T08:51:40.228Z,2.22
2022-09-14T08:54:42.718Z,2.45
2022-09-14T08:58:07.100Z,2.90
2022-09-14T09:01:34.782Z,2.50
2022-09-14T09:04:52.155Z,2.40
2022-09-14T09:08:09.957Z,2.60
2022-09-14T09:11:21.557Z,2.38
2022-09-14T09:14:32.922Z,2.90
2022-09-14T09:17:42.771Z,2.67
2022-09-14T09:20:52.253Z,2.93
2022-09-14T09:24:17.310Z,2.53
2022-09-14T09:27:21.441Z,2.38
2022-09-14T09:30:24.330Z,2.28
2022-09-14T09:33:35.660Z,2.60
2022-09-14T09:36:56.025Z,2.80
2022-09-14T09:40:00.485Z,2.67
2022-09-14T09:43:24.275Z,2.67
2022-09-14T09:46:59.745Z,2.47
2022-09-14T09:50:06.709Z,2.85
2022-09-14T09:53:16.663Z,3.10
2022-09-14T09:56:31.476Z,3.38
2022-09-14T09:59:42.413Z,2.72
2022-09-14T10:02:45.178Z,2.70
2022-09-14T10:06:02.353Z,2.97
2022-09-14T10:09:13.329Z,2.83
2022-09-14T10:12:17.589Z,3.83
2022-09-14T10:15:39.047Z,2.85
2022-09-14T10:18:49.134Z,3.05
2022-09-14T10:22:26.621Z,2.45
2022-09-14T10:25:29.383Z,2.70
2022-09-14T10:28:34.004Z,2.40
2022-09-14T10:31:38.399Z,2.45
2022-09-14T10:34:40.972Z,3.22
2022-09-14T10:37:56.533Z,2.60
2022-09-14T10:41:22.708Z,2.93
2022-09-14T10:44:30.419Z,2.50
2022-09-14T10:47:54.661Z,4.43
2022-09-14T10:51:32.018Z,9.30
2022-09-14T10:54:41.754Z,4.35
2022-09-14T10:58:18.102Z,3.97
2022-09-14T11:01:21.754Z,3.72
2022-09-14T11:04:46.522Z,2.72
2022-09-14T11:08:06.282Z,3.45
2022-09-14T11:11:30.949Z,3.45
2022-09-14T11:14:54.488Z,3.23
2022-09-14T11:17:58.505Z,3.33
2022-09-14T11:21:34.435Z,3.00
2022-09-14T11:24:46.215Z,2.92
2022-09-14T11:27:59.823Z,2.72
2022-09-14T11:31:12.504Z,3.10
2022-09-14T11:34:47.724Z,3.10
2022-09-14T11:37:56.524Z,2.90
2022-09-14T11:41:30.366Z,2.80
2022-09-14T11:44:41.251Z,2.40
2022-09-14T11:48:01.587Z,3.00
2022-09-14T11:51:12.251Z,2.70
2022-09-14T11:54:20.315Z,3.08
2022-09-14T11:57:26.738Z,2.85
2022-09-14T12:00:44.929Z,2.85
2022-09-14T12:04:06.302Z,2.50
2022-09-14T12:07:09.172Z,2.45
2022-09-14T12:10:19.688Z,2.22
2022-09-14T12:13:22.720Z,2.10
2022-09-14T12:16:25.311Z,2.03
2022-09-14T12:19:28.175Z,3.00
2022-09-14T12:22:35.643Z,3.42
2022-09-14T12:25:39.677Z,2.33
2022-09-14T12:28:50.341Z,2.35
2022-09-14T12:32:05.282Z,2.30
2022-09-14T12:35:39.791Z,2.50
2022-09-14T12:38:54.424Z,2.00
2022-09-14T12:42:25.501Z,2.38
2022-09-14T12:45:59.948Z,2.13
2022-09-14T12:49:15.050Z,2.10
2022-09-14T12:52:41.324Z,2.33
2022-09-14T12:55:47.550Z,2.45
2022-09-14T12:59:24.646Z,2.38
2022-09-14T13:02:48.250Z,2.38
2022-09-14T13:05:51.281Z,2.60
2022-09-14T13:08:58.144Z,2.57
2022-09-14T13:12:04.891Z,2.60
2022-09-14T13:15:19.344Z,2.40
2022-09-14T13:18:24.795Z,2.83
2022-09-14T13:21:27.753Z,3.10
2022-09-14T13:24:37.478Z,2.53
2022-09-14T13:27:40.113Z,2.72
2022-09-14T13:30:43.246Z,2.75
2022-09-14T13:33:53.626Z,2.20
2022-09-14T13:36:57.437Z,2.67
2022-09-14T13:40:00.465Z,3.07
2022-09-14T13:43:03.511Z,2.42
2022-09-14T13:46:10.898Z,2.65
2022-09-14T13:49:14.104Z,2.40
2022-09-14T13:52:33.937Z,2.60
2022-09-14T13:55:43.991Z,2.47
2022-09-14T13:58:48.701Z,2.42
2022-09-14T14:01:55.331Z,2.28
2022-09-14T14:04:58.122Z,2.15
2022-09-14T14:08:03.233Z,2.50
2022-09-14T14:11:08.531Z,2.20
2022-09-14T14:14:13.674Z,2.60
2022-09-14T14:17:21.921Z,2.30
2022-09-14T14:20:24.428Z,2.20
2022-09-14T14:23:26.954Z,2.38
2022-09-14T14:26:29.583Z,2.47
2022-09-14T14:29:32.261Z,2.35
2022-09-14T14:32:34.785Z,2.05
2022-09-14T14:35:37.326Z,2.20
2022-09-14T14:38:40.902Z,2.30
2022-09-14T14:41:43.898Z,2.20
2022-09-14T14:44:47.015Z,2.30
2022-09-14T14:47:50.753Z,2.85
2022-09-14T14:50:55.752Z,2.38
2022-09-14T14:53:58.272Z,2.40
2022-09-14T14:57:02.118Z,2.50
2022-09-14T15:00:11.713Z,2.20
2022-09-14T15:03:15.587Z,2.50
2022-09-14T15:06:23.218Z,2.53
2022-09-14T15:09:27.684Z,2.20
2022-09-14T15:12:31.288Z,2.40
2022-09-14T15:15:34.611Z,2.00
2022-09-14T15:18:37.166Z,2.45
2022-09-14T15:21:41.412Z,2.40
2022-09-14T15:24:44.205Z,2.60
2022-09-14T15:27:47.324Z,2.60
2022-09-14T15:30:51.911Z,2.33
2022-09-14T15:33:55.604Z,2.70
2022-09-14T15:36:59.055Z,2.50
2022-09-14T15:40:02.211Z,2.30
2022-09-14T15:43:04.826Z,2.37
2022-09-14T15:46:07.570Z,2.45
2022-09-14T15:49:19.205Z,3.42
2022-09-14T15:52:21.808Z,2.10
2022-09-14T15:55:24.363Z,2.50
2022-09-14T15:58:27.415Z,2.43
2022-09-14T16:01:30.718Z,2.70
2022-09-14T16:04:37.683Z,2.60
2022-09-14T16:07:40.201Z,2.80
2022-09-14T16:10:42.663Z,2.80
2022-09-14T16:13:45.349Z,2.60
2022-09-14T16:16:48.137Z,2.78
2022-09-14T16:19:51.666Z,3.08
2022-09-14T16:22:54.311Z,3.08
2022-09-14T16:25:57.099Z,3.67
2022-09-14T16:29:00.173Z,2.60
2022-09-14T16:32:02.914Z,2.55
2022-09-14T16:35:08.105Z,3.10
2022-09-14T16:38:10.870Z,3.10
2022-09-14T16:41:14.773Z,3.10
2022-09-14T16:44:20.211Z,4.00
2022-09-14T16:47:22.759Z,3.40
2022-09-14T16:50:25.237Z,2.85
2022-09-14T16:53:29.663Z,2.70
2022-09-14T16:56:36.129Z,3.10
2022-09-14T16:59:39.201Z,2.90
2022-09-14T17:02:43.030Z,3.08
2022-09-14T17:05:45.557Z,2.90
2022-09-14T17:08:48.538Z,2.90
2022-09-14T17:11:51.897Z,3.70
2022-09-14T17:14:54.328Z,3.00
2022-09-14T17:17:57.289Z,2.95
2022-09-14T17:21:02.744Z,2.55
2022-09-14T17:24:06.634Z,3.33
2022-09-14T17:27:09.264Z,2.58
2022-09-14T17:30:12.756Z,2.83
2022-09-14T17:33:15.467Z,3.00
2022-09-14T17:36:18.088Z,2.80
2022-09-14T17:39:20.921Z,3.63
2022-09-14T17:42:23.568Z,2.83
2022-09-14T17:45:26.167Z,2.80
2022-09-14T17:48:33.092Z,3.30
2022-09-14T17:51:37.275Z,2.92
2022-09-14T17:54:39.817Z,2.90
2022-09-14T17:57:42.423Z,2.80
2022-09-14T18:00:46.324Z,2.70
2022-09-14T18:04:01.341Z,3.08
2022-09-14T18:07:05.284Z,2.47
2022-09-14T18:10:08.695Z,2.80
2022-09-14T18:13:11.483Z,2.88
2022-09-14T18:16:16.155Z,2.37
2022-09-14T18:19:18.861Z,2.63
2022-09-14T18:22:21.744Z,2.75
2022-09-14T18:25:25.117Z,2.90
2022-09-14T18:28:29.085Z,2.95
2022-09-14T18:31:31.953Z,2.73
2022-09-14T18:34:35.085Z,2.65
2022-09-14T18:37:38.008Z,2.83
2022-09-14T18:40:41.332Z,2.85
2022-09-14T18:43:46.386Z,2.80
2022-09-14T18:46:51.313Z,2.70
2022-09-14T18:49:54.725Z,2.47
2022-09-14T18:52:57.643Z,2.65
2022-09-14T18:56:12.411Z,3.20
2022-09-14T18:59:15.451Z,2.83
2022-09-14T19:02:19.142Z,2.90
2022-09-14T19:05:23.228Z,2.60
2022-09-14T19:08:25.848Z,2.70
2022-09-14T19:11:30.503Z,2.80
2022-09-14T19:14:33.571Z,3.58
2022-09-14T19:17:36.472Z,2.70
2022-09-14T19:21:04.822Z,2.60
2022-09-14T19:24:09.064Z,2.75
2022-09-14T19:27:11.897Z,2.70
2022-09-14T19:30:14.953Z,2.95
2022-09-14T19:33:17.854Z,2.87
2022-09-14T19:36:22.525Z,2.53
2022-09-14T19:39:26.247Z,2.72
2022-09-14T19:42:49.297Z,2.78
2022-09-14T19:45:52.483Z,2.85
2022-09-14T19:48:55.896Z,3.07
2022-09-14T19:51:58.894Z,2.90
2022-09-14T19:55:01.728Z,2.55
2022-09-14T19:58:04.724Z,2.70
2022-09-14T20:01:08.781Z,2.90
2022-09-14T20:04:12.523Z,2.57
2022-09-14T20:07:15.536Z,3.05
2022-09-14T20:10:18.734Z,2.40
2022-09-14T20:13:21.455Z,2.95
2022-09-14T20:16:36.003Z,2.67
2022-09-14T20:19:39.669Z,2.57
2022-09-14T20:22:42.628Z,3.08
2022-09-14T20:25:45.146Z,2.47
2022-09-14T20:28:47.798Z,2.60
2022-09-14T20:31:51.291Z,2.42
2022-09-14T20:34:53.788Z,3.07
2022-09-14T20:37:56.238Z,2.63
2022-09-14T20:41:01.792Z,2.70
2022-09-14T20:44:04.718Z,2.45
2022-09-14T20:47:07.272Z,2.97
2022-09-14T20:50:10.702Z,2.87
2022-09-14T20:53:13.261Z,2.60
2022-09-14T20:56:21.939Z,2.42
2022-09-14T20:59:25.583Z,2.75
2022-09-14T21:02:28.265Z,2.60
2022-09-14T21:05:31.319Z,2.97
2022-09-14T21:08:36.377Z,2.50
2022-09-14T21:11:39.791Z,2.83
2022-09-14T21:14:45.154Z,2.60
2022-09-14T21:17:47.880Z,2.72
2022-09-14T21:20:50.490Z,2.40
2022-09-14T21:23:55.901Z,2.60
2022-09-14T21:26:58.380Z,2.60
2022-09-14T21:30:01.062Z,2.92
2022-09-14T21:33:03.731Z,2.55
2022-09-14T21:36:11.914Z,2.53
2022-09-14T21:39:21.751Z,2.67
2022-09-14T21:42:24.533Z,2.58
2022-09-14T21:45:27.178Z,2.70
2022-09-14T21:48:30.011Z,2.85
2022-09-14T21:51:35.697Z,2.53
2022-09-14T21:54:38.459Z,2.65
2022-09-14T21:57:41.567Z,3.03
2022-09-14T22:00:44.372Z,2.88
2022-09-14T22:03:47.770Z,2.60
2022-09-14T22:06:53.832Z,3.00
2022-09-14T22:09:56.975Z,3.13
2022-09-14T22:12:59.889Z,2.95
2022-09-14T22:16:10.865Z,2.50
2022-09-14T22:19:23.414Z,2.65
2022-09-14T22:22:26.452Z,3.03
2022-09-14T22:25:29.212Z,2.60
2022-09-14T22:28:31.773Z,2.67
2022-09-14T22:31:35.448Z,2.55
2022-09-14T22:34:41.722Z,2.58
2022-09-14T22:37:44.745Z,2.83
2022-09-14T22:40:55.386Z,2.83
2022-09-14T22:43:58.079Z,2.72
2022-09-14T22:47:00.676Z,2.53
2022-09-14T22:50:04.396Z,2.90
2022-09-14T22:53:07.821Z,2.93
2022-09-14T22:56:16.064Z,2.42
2022-09-14T22:59:18.897Z,2.97
2022-09-14T23:02:21.628Z,2.47
2022-09-14T23:05:24.486Z,2.85
2022-09-14T23:08:28.111Z,2.10
2022-09-14T23:11:31.659Z,2.35
2022-09-14T23:14:35.131Z,2.67
2022-09-14T23:17:37.900Z,2.88
2022-09-14T23:20:43.679Z,2.95
2022-09-14T23:23:59.012Z,2.50
2022-09-14T23:27:01.686Z,2.50
2022-09-14T23:30:05.296Z,2.60
2022-09-14T23:33:08.431Z,2.88
2022-09-14T23:36:11.590Z,2.60
2022-09-14T23:39:14.584Z,2.67
2022-09-14T23:42:17.327Z,2.97
2022-09-14T23:45:20.767Z,2.58
2022-09-14T23:48:23.855Z,2.95
2022-09-14T23:51:26.637Z,2.50
2022-09-14T23:54:29.677Z,2.70
2022-09-14T23:57:32.463Z,2.50
